createdAt,value
2024-01-06T00:00:32.310Z,99398.53
2024-01-06T00:03:35.998Z,99387.00
2024-01-06T00:06:38.900Z,99384.66
2024-01-06T00:09:41.998Z,99375.41
2024-01-06T00:12:45.503Z,99385.03
2024-01-06T00:15:48.917Z,99380.84
2024-01-06T00:18:52.192Z,99381.19
2024-01-06T00:21:55.183Z,99376.94
2024-01-06T00:24:58.032Z,99379.25
2024-01-06T00:28:01.115Z,99382.31
2024-01-06T00:31:04.569Z,99379.25
2024-01-06T00:34:08.123Z,99386.13
2024-01-06T00:37:11.365Z,99385.38
2024-01-06T00:40:14.588Z,99388.44
2024-01-06T00:43:17.809Z,99387.59
2024-01-06T00:46:20.889Z,99383.00
2024-01-06T00:49:24.109Z,99377.16
2024-01-06T00:52:26.974Z,99381.38
2024-01-06T00:55:32.880Z,99387.19
2024-01-06T00:58:36.007Z,99399.06
2024-01-06T01:01:38.890Z,99391.38
2024-01-06T01:04:42.361Z,99391.00
2024-01-06T01:07:45.540Z,99391.75
2024-01-06T01:10:48.707Z,99392.88
2024-01-06T01:13:52.082Z,99388.97
2024-01-06T01:16:55.164Z,99401.25
2024-01-06T01:19:58.288Z,99403.63
2024-01-06T01:23:01.374Z,99385.16
2024-01-06T01:26:04.565Z,99380.16
2024-01-06T01:29:07.410Z,99374.75
2024-01-06T01:32:10.295Z,99378.25
2024-01-06T01:35:13.472Z,99385.16
2024-01-06T01:38:16.621Z,99375.94
2024-01-06T01:41:19.896Z,99369.78
2024-01-06T01:44:23.030Z,99365.91
2024-01-06T01:47:26.820Z,99347.44
2024-01-06T01:50:32.214Z,99338.19
2024-01-06T01:53:35.326Z,99332.41
2024-01-06T01:56:40.976Z,99338.19
2024-01-06T01:59:44.021Z,99335.09
2024-01-06T02:02:47.529Z,99339.31
2024-01-06T02:05:50.478Z,99326.59
2024-01-06T02:08:53.718Z,99316.63
2024-01-06T02:11:59.691Z,99306.13
2024-01-06T02:15:02.576Z,99305.06
2024-01-06T02:18:06.152Z,99305.03
2024-01-06T02:21:12.709Z,99305.75
2024-01-06T02:24:15.593Z,99304.28
2024-01-06T02:27:18.837Z,99298.06
2024-01-06T02:30:21.876Z,99289.31
2024-01-06T02:33:25.633Z,99302.00
2024-01-06T02:36:28.712Z,99303.88
2024-01-06T02:39:31.837Z,99297.38
2024-01-06T02:42:35.027Z,99305.03
2024-01-06T02:45:38.235Z,99284.56
2024-01-06T02:48:41.453Z,99286.44
2024-01-06T02:51:44.418Z,99287.16
2024-01-06T02:54:47.608Z,99283.28
2024-01-06T02:57:50.465Z,99282.47
2024-01-06T03:00:53.699Z,99278.59
2024-01-06T03:03:56.944Z,99283.28
2024-01-06T03:07:00.029Z,99281.28
2024-01-06T03:10:03.831Z,99289.38
2024-01-06T03:13:08.894Z,99282.47
2024-01-06T03:16:13.417Z,99285.13
2024-01-06T03:19:16.712Z,99282.06
2024-01-06T03:22:19.844Z,99287.81
2024-01-06T03:25:22.990Z,99290.50
2024-01-06T03:28:26.088Z,99285.53
2024-01-06T03:31:28.913Z,99291.66
2024-01-06T03:34:32.228Z,99286.34
2024-01-06T03:37:35.741Z,99289.09
2024-01-06T03:40:38.845Z,99280.25
2024-01-06T03:43:41.854Z,99288.84
2024-01-06T03:46:44.989Z,99289.66
2024-01-06T03:49:48.237Z,99275.38
2024-01-06T03:52:51.354Z,99278.03
2024-01-06T03:55:54.475Z,99286.59
2024-01-06T03:58:57.588Z,99272.75
2024-01-06T04:02:00.731Z,99263.91
2024-01-06T04:05:06.285Z,99276.63
2024-01-06T04:08:09.596Z,99269.34
2024-01-06T04:11:12.626Z,99264.72
2024-01-06T04:14:15.408Z,99284.44
2024-01-06T04:17:18.479Z,99292.13
2024-01-06T04:20:21.776Z,99296.31
2024-01-06T04:23:26.446Z,99303.63
2024-01-06T04:26:29.758Z,99299.81
2024-01-06T04:29:33.053Z,99299.81
2024-01-06T04:32:36.197Z,99289.44
2024-01-06T04:35:39.353Z,99272.56
2024-01-06T04:38:42.567Z,99282.84
2024-01-06T04:41:45.479Z,99278.31
2024-01-06T04:44:48.565Z,99282.28
2024-01-06T04:47:52.252Z,99276.91
2024-01-06T04:50:55.425Z,99276.91
2024-01-06T04:53:58.276Z,99272.72
2024-01-06T04:57:01.152Z,99273.13
2024-01-06T05:00:05.628Z,99268.47
2024-01-06T05:03:09.616Z,99260.38
2024-01-06T05:06:13.288Z,99263.53
2024-01-06T05:09:16.258Z,99268.94
2024-01-06T05:12:19.145Z,99244.72
2024-01-06T05:15:22.496Z,99240.13
2024-01-06T05:18:25.849Z,99236.66
2024-01-06T05:21:29.923Z,99243.19
2024-01-06T05:24:33.036Z,99241.63
2024-01-06T05:27:36.528Z,99237.06
2024-01-06T05:30:39.934Z,99259.72
2024-01-06T05:33:43.824Z,99256.53
2024-01-06T05:36:47.211Z,99261.84
2024-01-06T05:39:50.317Z,99260.31
2024-01-06T05:42:56.761Z,99245.34
2024-01-06T05:45:59.697Z,99261.09
2024-01-06T05:49:02.995Z,99244.97
2024-01-06T05:52:06.304Z,99254.31
2024-01-06T05:55:10.220Z,99265.44
2024-01-06T05:58:13.512Z,99251.94
2024-01-06T06:01:17.976Z,99256.69
2024-01-06T06:04:22.154Z,99251.72
2024-01-06T06:07:25.393Z,99243.53
2024-01-06T06:10:41.634Z,99248.19
2024-01-06T06:13:44.694Z,99237.84
2024-01-06T06:16:49.095Z,99246.34
2024-01-06T06:19:52.369Z,99249.81
2024-01-06T06:22:55.396Z,99242.53
2024-01-06T06:25:58.576Z,99256.28
2024-01-06T06:29:02.521Z,99258.19
2024-01-06T06:32:05.611Z,99248.19
2024-01-06T06:35:09.105Z,99259.72
2024-01-06T06:38:12.304Z,99265.50
2024-01-06T06:41:15.111Z,99263.88
2024-01-06T06:44:18.315Z,99266.94
2024-01-06T06:47:21.719Z,99273.84
2024-01-06T06:50:24.860Z,99263.88
2024-01-06T06:53:28.163Z,99244.81
2024-01-06T06:56:30.959Z,99248.59
2024-01-06T06:59:34.108Z,99243.19
2024-01-06T07:02:38.080Z,99245.38
2024-01-06T07:05:41.321Z,99238.09
2024-01-06T07:08:44.220Z,99243.09
2024-01-06T07:11:46.992Z,99252.28
2024-01-06T07:14:49.901Z,99253.84
2024-01-06T07:17:53.237Z,99250.31
2024-01-06T07:20:56.193Z,99256.81
2024-01-06T07:23:59.295Z,99259.13
2024-01-06T07:27:02.215Z,99265.28
2024-01-06T07:30:06.106Z,99268.38
2024-01-06T07:33:10.249Z,99269.50
2024-01-06T07:36:13.210Z,99273.66
2024-01-06T07:39:16.403Z,99266.34
2024-01-06T07:42:19.573Z,99267.06
2024-01-06T07:45:23.194Z,99269.03
2024-01-06T07:48:26.500Z,99263.25
2024-01-06T07:51:29.965Z,99271.38
2024-01-06T07:54:33.106Z,99275.19
2024-01-06T07:57:36.314Z,99265.47
2024-01-06T08:00:39.351Z,99270.81
2024-01-06T08:03:42.605Z,99277.69
2024-01-06T08:06:45.835Z,99276.56
2024-01-06T08:09:48.772Z,99274.28
2024-01-06T08:12:52.062Z,99274.13
2024-01-06T08:15:55.235Z,99268.78
2024-01-06T08:18:58.418Z,99268.38
2024-01-06T08:22:01.726Z,99260.63
2024-01-06T08:25:07.560Z,99266.84
2024-01-06T08:28:10.932Z,99269.53
2024-01-06T08:31:13.802Z,99269.47
2024-01-06T08:34:16.882Z,99269.53
2024-01-06T08:37:19.804Z,99273.41
2024-01-06T08:40:22.692Z,99271.47
2024-01-06T08:43:25.882Z,99280.25
2024-01-06T08:46:29.185Z,99275.59
2024-01-06T08:49:32.542Z,99281.84
2024-01-06T08:52:36.206Z,99279.56
2024-01-06T08:55:39.339Z,99278.78
2024-01-06T08:58:42.456Z,99280.19
2024-01-06T09:01:47.295Z,99286.69
2024-01-06T09:04:51.878Z,99297.06
2024-01-06T09:07:55.916Z,99288.63
2024-01-06T09:10:59.768Z,99289.75
2024-01-06T09:14:02.854Z,99285.53
2024-01-06T09:17:05.958Z,99271.56
2024-01-06T09:20:09.476Z,99268.81
2024-01-06T09:23:12.551Z,99293.06
2024-01-06T09:26:17.698Z,99283.00
2024-01-06T09:29:20.883Z,99286.09
2024-01-06T09:32:24.363Z,99282.53
2024-01-06T09:35:27.529Z,99282.94
2024-01-06T09:38:30.436Z,99275.50
2024-01-06T09:41:33.341Z,99267.41
2024-01-06T09:44:36.292Z,99256.97
2024-01-06T09:47:42.250Z,99254.97
2024-01-06T09:50:48.586Z,99218.38
2024-01-06T09:54:02.796Z,99204.94
2024-01-06T09:57:07.400Z,99211.09
2024-01-06T10:00:11.263Z,99222.66
2024-01-06T10:03:17.651Z,99225.00
2024-01-06T10:06:21.994Z,99241.44
2024-01-06T10:09:29.950Z,99249.38
2024-01-06T10:12:33.614Z,99239.41
2024-01-06T10:15:37.693Z,99244.75
2024-01-06T10:18:40.784Z,99245.19
2024-01-06T10:21:45.227Z,99245.94
2024-01-06T10:24:51.238Z,99234.78
2024-01-06T10:27:54.492Z,99237.94
2024-01-06T10:30:58.813Z,99227.78
2024-01-06T10:34:01.956Z,99222.59
2024-01-06T10:37:05.042Z,99211.72
2024-01-06T10:40:13.481Z,99219.28
2024-01-06T10:43:17.334Z,99210.44
2024-01-06T10:46:20.988Z,99204.69
2024-01-06T10:49:26.248Z,99199.28
2024-01-06T10:52:29.670Z,99207.31
2024-01-06T10:55:33.546Z,99208.44
2024-01-06T10:58:43.870Z,99197.22
2024-01-06T11:01:48.236Z,99186.22
2024-01-06T11:04:51.820Z,99185.69
2024-01-06T11:08:00.936Z,99182.63
2024-01-06T11:11:05.685Z,99173.22
2024-01-06T11:14:34.275Z,99166.84
2024-01-06T11:17:57.487Z,99153.28
2024-01-06T11:21:13.954Z,99145.66
2024-01-06T11:24:25.797Z,99134.56
2024-01-06T11:27:32.650Z,99130.34
2024-01-06T11:31:10.351Z,99145.34
2024-01-06T11:34:16.116Z,99137.13
2024-01-06T11:37:21.536Z,99143.63
2024-01-06T11:40:25.806Z,99147.78
2024-01-06T11:43:28.669Z,99151.19
2024-01-06T11:46:31.596Z,99146.13
2024-01-06T11:49:35.247Z,99151.63
2024-01-06T11:52:41.191Z,99162.75
2024-01-06T11:55:44.532Z,99149.19
2024-01-06T11:58:47.746Z,99148.41
2024-01-06T12:01:50.942Z,99145.72
2024-01-06T12:04:55.031Z,99141.84
2024-01-06T12:08:03.955Z,99133.75
2024-01-06T12:11:08.710Z,99133.75
2024-01-06T12:14:12.167Z,99145.28
2024-01-06T12:17:15.501Z,99145.03
2024-01-06T12:20:18.313Z,99146.28
2024-01-06T12:23:29.138Z,99145.50
2024-01-06T12:26:32.582Z,99135.47
2024-01-06T12:29:39.174Z,99133.13
2024-01-06T12:32:42.301Z,99143.09
2024-01-06T12:35:47.089Z,99141.44
2024-01-06T12:38:50.473Z,99137.69
2024-01-06T12:41:53.270Z,99140.72
2024-01-06T12:44:56.440Z,99143.84
2024-01-06T12:47:59.577Z,99136.09
2024-01-06T12:51:02.403Z,99130.69
2024-01-06T12:54:05.530Z,99133.75
2024-01-06T12:57:09.021Z,99130.69
2024-01-06T13:00:13.422Z,99126.72
2024-01-06T13:03:16.843Z,99122.53
2024-01-06T13:06:20.331Z,99127.56
2024-01-06T13:09:25.240Z,99128.75
2024-01-06T13:12:30.313Z,99126.13
2024-01-06T13:15:33.622Z,99127.63
2024-01-06T13:18:37.007Z,99138.78
2024-01-06T13:21:40.660Z,99152.91
2024-01-06T13:24:43.576Z,99152.44
2024-01-06T13:27:46.698Z,99143.13
2024-01-06T13:30:50.726Z,99135.88
2024-01-06T13:33:53.993Z,99132.69
2024-01-06T13:36:58.581Z,99129.56
2024-01-06T13:40:01.627Z,99118.81
2024-01-06T13:43:06.375Z,99131.25
2024-01-06T13:46:09.402Z,99141.97
2024-01-06T13:49:13.291Z,99135.03
2024-01-06T13:52:16.650Z,99137.81
2024-01-06T13:55:19.939Z,99134.34
2024-01-06T13:58:23.071Z,99116.19
2024-01-06T14:01:26.206Z,99113.91
2024-01-06T14:04:29.179Z,99108.50
2024-01-06T14:07:32.115Z,99110.53
2024-01-06T14:10:35.192Z,99110.94
2024-01-06T14:13:38.106Z,99117.38
2024-01-06T14:16:41.439Z,99110.53
2024-01-06T14:19:48.161Z,99115.56
2024-01-06T14:22:51.517Z,99121.75
2024-01-06T14:25:54.790Z,99133.38
2024-01-06T14:28:59.068Z,99128.66
2024-01-06T14:32:02.189Z,99137.06
2024-01-06T14:35:07.810Z,99148.97
2024-01-06T14:38:11.275Z,99149.31
2024-01-06T14:41:14.367Z,99152.97
2024-01-06T14:44:23.678Z,99146.19
2024-01-06T14:47:26.577Z,99149.09
2024-01-06T14:50:29.683Z,99151.44
2024-01-06T14:53:32.837Z,99149.50
2024-01-06T14:56:39.900Z,99148.47
2024-01-06T14:59:44.390Z,99143.44
2024-01-06T15:02:48.044Z,99146.53
2024-01-06T15:05:51.216Z,99137.31
2024-01-06T15:08:54.923Z,99138.50
2024-01-06T15:11:57.762Z,99136.56
2024-01-06T15:15:00.663Z,99116.53
2024-01-06T15:18:04.036Z,99125.00
2024-01-06T15:21:07.159Z,99121.59
2024-01-06T15:24:10.628Z,99121.19
2024-01-06T15:27:13.551Z,99113.84
2024-01-06T15:30:17.449Z,99123.38
2024-01-06T15:33:20.856Z,99122.72
2024-01-06T15:36:24.086Z,99124.59
2024-01-06T15:39:27.017Z,99130.66
2024-01-06T15:42:30.563Z,99123.38
2024-01-06T15:45:33.854Z,99127.97
2024-01-06T15:48:37.768Z,99127.22
2024-01-06T15:51:41.654Z,99117.97
2024-01-06T15:54:44.545Z,99118.75
2024-01-06T15:57:47.857Z,99113.41
2024-01-06T16:00:50.972Z,99118.47
2024-01-06T16:03:53.966Z,99118.81
2024-01-06T16:06:56.896Z,99108.44
2024-01-06T16:09:59.920Z,99111.91
2024-01-06T16:13:03.371Z,99106.16
2024-01-06T16:16:08.636Z,99102.25
2024-01-06T16:19:11.798Z,99098.22
2024-01-06T16:22:17.952Z,99103.63
2024-01-06T16:25:21.483Z,99112.03
2024-01-06T16:28:24.638Z,99130.47
2024-01-06T16:31:28.428Z,99133.78
2024-01-06T16:34:31.477Z,99131.44
2024-01-06T16:37:34.379Z,99135.50
2024-01-06T16:40:37.207Z,99128.91
2024-01-06T16:43:40.400Z,99123.16
2024-01-06T16:46:43.656Z,99122.41
2024-01-06T16:49:46.896Z,99123.25
2024-01-06T16:52:50.148Z,99119.44
2024-01-06T16:55:53.176Z,99115.22
2024-01-06T16:58:56.338Z,99103.31
2024-01-06T17:02:00.094Z,99105.38
2024-01-06T17:05:03.584Z,99109.97
2024-01-06T17:08:07.141Z,99112.75
2024-01-06T17:11:10.558Z,99119.19
2024-01-06T17:14:15.349Z,99129.16
2024-01-06T17:17:18.485Z,99125.13
2024-01-06T17:20:21.545Z,99123.25
2024-01-06T17:23:25.912Z,99131.38
2024-01-06T17:26:29.127Z,99135.94
2024-01-06T17:29:31.961Z,99139.38
2024-01-06T17:32:34.982Z,99139.97
2024-01-06T17:35:38.277Z,99136.25
2024-01-06T17:38:41.628Z,99124.94
2024-01-06T17:41:52.899Z,99109.81
2024-01-06T17:45:00.724Z,99111.84
2024-01-06T17:48:04.665Z,99117.31
2024-01-06T17:51:07.819Z,99109.56
2024-01-06T17:54:11.512Z,99110.03
2024-01-06T17:57:19.212Z,99099.56
2024-01-06T18:00:23.321Z,99096.19
2024-01-06T18:03:26.535Z,99092.81
2024-01-06T18:06:30.206Z,99082.00
2024-01-06T18:09:33.268Z,99077.75
2024-01-06T18:12:37.717Z,99081.91
2024-01-06T18:15:40.725Z,99088.09
2024-01-06T18:18:44.019Z,99083.88
2024-01-06T18:21:47.593Z,99090.78
2024-01-06T18:24:50.789Z,99088.28
2024-01-06T18:27:53.856Z,99102.06
2024-01-06T18:30:57.000Z,99109.56
2024-01-06T18:34:00.635Z,99100.28
2024-01-06T18:37:03.819Z,99100.28
2024-01-06T18:40:07.424Z,99102.25
2024-01-06T18:43:10.510Z,99102.50
2024-01-06T18:46:13.448Z,99097.84
2024-01-06T18:49:17.479Z,99096.66
2024-01-06T18:52:21.676Z,99101.66
2024-01-06T18:55:24.957Z,99102.00
2024-01-06T18:58:28.156Z,99096.91
2024-01-06T19:01:32.460Z,99088.50
2024-01-06T19:04:35.740Z,99085.84
2024-01-06T19:07:39.003Z,99075.81
2024-01-06T19:10:42.169Z,99071.16
2024-01-06T19:13:46.068Z,99076.13
2024-01-06T19:16:49.278Z,99073.44
2024-01-06T19:19:52.445Z,99076.50
2024-01-06T19:23:02.941Z,99066.09
2024-01-06T19:26:12.332Z,99078.53
2024-01-06T19:29:15.167Z,99075.41
2024-01-06T19:32:19.112Z,99066.38
2024-01-06T19:35:22.030Z,99070.31
2024-01-06T19:38:25.474Z,99069.56
2024-01-06T19:41:29.587Z,99074.91
2024-01-06T19:44:32.849Z,99071.44
2024-01-06T19:47:36.122Z,99074.13
2024-01-06T19:50:39.242Z,99069.88
2024-01-06T19:53:42.237Z,99067.88
2024-01-06T19:56:45.430Z,99065.25
2024-01-06T19:59:50.876Z,99064.84
2024-01-06T20:02:54.463Z,99063.41
2024-01-06T20:05:57.624Z,99059.69
2024-01-06T20:09:00.962Z,99058.91
2024-01-06T20:12:04.274Z,99057.88
2024-01-06T20:15:10.936Z,99057.63
2024-01-06T20:18:15.141Z,99053.31
2024-01-06T20:21:18.629Z,99053.00
2024-01-06T20:24:22.034Z,99049.44
2024-01-06T20:27:25.277Z,99042.94
2024-01-06T20:30:28.586Z,99046.66
2024-01-06T20:33:34.866Z,99042.94
2024-01-06T20:36:38.847Z,99037.09
2024-01-06T20:39:42.194Z,99042.81
2024-01-06T20:42:45.446Z,99046.41
2024-01-06T20:45:50.223Z,99044.13
2024-01-06T20:48:54.446Z,99038.25
2024-01-06T20:51:58.532Z,99034.34
2024-01-06T20:55:02.529Z,99033.28
2024-01-06T20:58:05.649Z,99032.38
2024-01-06T21:01:08.821Z,99033.84
2024-01-06T21:04:11.898Z,99032.31
2024-01-06T21:07:15.220Z,99020.66
2024-01-06T21:10:18.651Z,99016.47
2024-01-06T21:13:21.697Z,99019.50
2024-01-06T21:16:25.792Z,99021.69
2024-01-06T21:19:29.685Z,99021.16
2024-01-06T21:22:35.081Z,99022.53
2024-01-06T21:25:39.490Z,99027.69
2024-01-06T21:28:42.584Z,99026.56
2024-01-06T21:31:45.672Z,99022.63
2024-01-06T21:34:48.646Z,99027.09
2024-01-06T21:37:51.547Z,99020.13
2024-01-06T21:40:54.456Z,99024.63
2024-01-06T21:43:58.259Z,99013.06
2024-01-06T21:47:04.144Z,99016.81
2024-01-06T21:50:09.415Z,99009.81
2024-01-06T21:53:12.970Z,99001.16
2024-01-06T21:56:15.836Z,99000.75
2024-01-06T21:59:20.902Z,99004.88
2024-01-06T22:02:23.865Z,99000.81
2024-01-06T22:05:28.361Z,99004.69
2024-01-06T22:08:31.502Z,98999.66
2024-01-06T22:11:39.306Z,98996.13
2024-01-06T22:14:43.588Z,98996.13
2024-01-06T22:17:46.646Z,98992.22
2024-01-06T22:20:49.529Z,98996.25
2024-01-06T22:23:55.904Z,98995.94
2024-01-06T22:26:59.058Z,98991.19
2024-01-06T22:30:01.873Z,98993.84
2024-01-06T22:33:05.494Z,98995.22
2024-01-06T22:36:12.955Z,98983.75
2024-01-06T22:39:20.412Z,98987.13
2024-01-06T22:42:23.670Z,98989.63
2024-01-06T22:45:29.281Z,98988.91
2024-01-06T22:48:33.658Z,98983.97
2024-01-06T22:51:37.243Z,98988.97
2024-01-06T22:54:41.526Z,98986.63
2024-01-06T22:57:44.613Z,98994.84
2024-01-06T23:00:47.794Z,98987.22
2024-01-06T23:03:51.040Z,98986.81
2024-01-06T23:06:55.217Z,98992.19
2024-01-06T23:09:58.301Z,98979.47
2024-01-06T23:13:01.449Z,98974.16
2024-01-06T23:16:04.946Z,98976.53
2024-01-06T23:19:08.263Z,98970.34
2024-01-06T23:22:11.563Z,98975.34
2024-01-06T23:25:15.939Z,98972.28
2024-01-06T23:28:22.604Z,98974.91
2024-01-06T23:31:25.798Z,98976.38
2024-01-06T23:34:38.349Z,98980.25
2024-01-06T23:37:49.079Z,98983.16
2024-01-06T23:40:52.150Z,98976.91
2024-01-06T23:43:55.270Z,98977.75
2024-01-06T23:46:58.457Z,98976.56
2024-01-06T23:50:03.090Z,98976.56
2024-01-06T23:53:06.501Z,98972.69
2024-01-06T23:56:09.672Z,98968.47
2024-01-06T23:59:13.954Z,98969.66
